Time;durP1;ratioP1;P1;durP2;ratioP2;P2;SDS_P1;SDS_P2;PMS_P1;PMS_P2;Temp;Humidity;BMP_temperature;BMP_pressure;BME280_temperature;BME280_humidity;BME280_pressure;Samples;Min_cycle;Max_cycle;Signal;HPM_P1;HPM_P2
2021/03/30 00:00:13;;;;;;;4.13;2.10;;;10.40;73.70;;;;;;5019375;28;20185;-67
2021/03/30 00:02:39;;;;;;;6.87;2.40;;;10.30;73.30;;;;;;5011316;28;20247;-65
2021/03/30 00:05:05;;;;;;;3.63;2.30;;;10.20;75.00;;;;;;5011525;28;20207;-67
2021/03/30 00:07:31;;;;;;;3.37;2.03;;;10.10;76.10;;;;;;5030059;28;20175;-66
2021/03/30 00:09:56;;;;;;;3.57;2.03;;;10.00;76.90;;;;;;5031067;28;20441;-67
2021/03/30 00:12:22;;;;;;;4.23;2.77;;;10.00;77.30;;;;;;5013415;28;20180;-67
2021/03/30 00:14:48;;;;;;;4.30;2.43;;;9.90;77.10;;;;;;5011665;28;20195;-68
2021/03/30 00:17:13;;;;;;;2.83;2.27;;;9.90;78.00;;;;;;5011442;28;20192;-66
2021/03/30 00:19:39;;;;;;;3.07;2.10;;;9.70;76.40;;;;;;5014191;28;20184;-65
2021/03/30 00:22:04;;;;;;;5.40;2.60;;;9.70;77.30;;;;;;5011361;28;20222;-65
2021/03/30 00:24:30;;;;;;;5.10;2.37;;;9.60;78.30;;;;;;5015357;28;21758;-67
2021/03/30 00:26:56;;;;;;;4.20;2.33;;;9.50;78.20;;;;;;5018391;28;20195;-65
2021/03/30 00:29:21;;;;;;;5.20;2.67;;;9.50;78.60;;;;;;5015727;28;20595;-66
2021/03/30 00:31:47;;;;;;;4.20;2.67;;;9.40;80.30;;;;;;5011383;28;20184;-66
2021/03/30 00:34:13;;;;;;;4.97;2.70;;;9.30;81.30;;;;;;5005148;28;20192;-66
2021/03/30 00:36:38;;;;;;;3.90;2.20;;;9.10;81.50;;;;;;5031058;28;20530;-67
2021/03/30 00:39:04;;;;;;;4.03;2.40;;;9.00;83.10;;;;;;5030752;28;20179;-68
2021/03/30 00:41:30;;;;;;;4.43;2.30;;;8.90;84.90;;;;;;5014702;28;20258;-67
2021/03/30 00:43:55;;;;;;;5.50;2.50;;;8.80;88.80;;;;;;5011608;28;20176;-67
2021/03/30 00:46:23;;;;;;;6.10;2.70;;;8.80;90.30;;;;;;5011198;28;20386;-68
2021/03/30 00:48:50;;;;;;;3.93;2.47;;;9.00;89.30;;;;;;5027731;28;20190;-69
2021/03/30 00:51:17;;;;;;;5.53;2.37;;;9.20;88.70;;;;;;5011143;28;20522;-66
2021/03/30 00:53:43;;;;;;;3.20;2.33;;;9.10;87.80;;;;;;5002279;28;20459;-68
2021/03/30 00:56:09;;;;;;;3.13;2.10;;;9.10;86.90;;;;;;4991370;28;20895;-65
2021/03/30 00:58:35;;;;;;;5.00;2.87;;;9.10;87.70;;;;;;5004420;28;20215;-69
2021/03/30 01:01:00;;;;;;;3.33;2.30;;;9.00;85.80;;;;;;5011158;28;20267;-65
2021/03/30 01:03:26;;;;;;;5.47;2.50;;;9.00;85.40;;;;;;5010959;28;20486;-66
2021/03/30 01:05:52;;;;;;;5.27;2.40;;;8.70;86.30;;;;;;4993759;28;20181;-65
2021/03/30 01:08:52;;;;;;;6.67;2.77;;;8.60;88.00;;;;;;4991299;28;20169;-67
2021/03/30 01:11:27;;;;;;;2.60;2.23;;;8.50;89.00;;;;;;4991615;28;20180;-66
2021/03/30 01:14:06;;;;;;;5.30;2.57;;;8.30;90.00;;;;;;4994928;28;20415;-67
2021/03/30 01:16:45;;;;;;;8.07;2.60;;;8.30;90.70;;;;;;5000062;28;20911;-66
2021/03/30 01:19:59;;;;;;;4.00;2.43;;;8.20;91.60;;;;;;4995069;28;20805;-65
2021/03/30 01:23:00;;;;;;;4.50;2.40;;;8.10;91.20;;;;;;4970971;28;20455;-66
2021/03/30 01:25:28;;;;;;;4.40;3.13;;;8.00;91.90;;;;;;4994985;28;20477;-66
2021/03/30 01:28:01;;;;;;;3.23;2.10;;;8.00;91.90;;;;;;4994595;28;20423;-65
2021/03/30 01:30:30;;;;;;;3.10;2.40;;;7.90;92.20;;;;;;4996480;28;20506;-64
2021/03/30 01:33:04;;;;;;;6.23;2.33;;;7.80;92.40;;;;;;5014514;28;20458;-67
2021/03/30 01:35:31;;;;;;;5.20;2.50;;;7.90;92.30;;;;;;5000000;28;20443;-66
2021/03/30 01:37:57;;;;;;;3.87;2.87;;;7.90;92.50;;;;;;4994822;28;20420;-66
2021/03/30 01:40:30;;;;;;;3.73;3.00;;;7.80;92.80;;;;;;4994372;28;20451;-67
2021/03/30 01:42:57;;;;;;;5.50;3.00;;;7.80;93.00;;;;;;4994624;28;20803;-65
2021/03/30 01:45:24;;;;;;;5.63;3.27;;;7.70;93.20;;;;;;5003243;28;20440;-68
2021/03/30 01:47:51;;;;;;;5.63;3.13;;;7.70;93.40;;;;;;5004045;28;20495;-66
2021/03/30 01:50:18;;;;;;;8.37;2.87;;;7.70;93.90;;;;;;4994292;28;20424;-65
2021/03/30 01:52:45;;;;;;;4.57;2.50;;;7.60;94.00;;;;;;4998133;28;20469;-67
2021/03/30 01:55:14;;;;;;;4.90;2.90;;;7.60;94.10;;;;;;5013833;28;20525;-68
2021/03/30 01:57:44;;;;;;;5.00;3.10;;;7.50;94.30;;;;;;5013377;28;20499;-65
2021/03/30 02:00:10;;;;;;;7.07;2.50;;;7.50;94.30;;;;;;5013617;28;20427;-67
2021/03/30 02:02:36;;;;;;;4.43;2.30;;;7.50;94.60;;;;;;5013570;28;20495;-66
2021/03/30 02:05:04;;;;;;;4.87;2.63;;;7.50;94.40;;;;;;5013793;28;20422;-67
2021/03/30 02:07:32;;;;;;;5.00;2.37;;;7.60;94.00;;;;;;5013482;28;20422;-66
2021/03/30 02:09:59;;;;;;;6.40;2.43;;;7.60;94.20;;;;;;5013350;28;20420;-66
2021/03/30 02:12:31;;;;;;;4.30;2.40;;;7.70;93.80;;;;;;5013460;28;20431;-67
2021/03/30 02:14:57;;;;;;;4.77;2.20;;;7.70;93.60;;;;;;5013603;28;20420;-68
2021/03/30 02:17:32;;;;;;;4.20;2.57;;;7.80;93.30;;;;;;4995481;28;20443;-68
2021/03/30 02:20:07;;;;;;;3.80;2.40;;;7.80;93.00;;;;;;5013060;28;20234;-66
2021/03/30 02:22:51;;;;;;;7.57;3.10;;;7.80;93.00;;;;;;5013143;28;20521;-68
2021/03/30 02:25:19;;;;;;;6.73;3.00;;;7.80;93.40;;;;;;5012329;28;20727;-63
2021/03/30 02:27:48;;;;;;;4.90;2.60;;;7.60;93.50;;;;;;5013076;28;20470;-67
2021/03/30 02:30:16;;;;;;;5.70;2.40;;;7.60;93.90;;;;;;5012992;28;20897;-68
2021/03/30 02:32:43;;;;;;;5.77;2.43;;;7.50;94.30;;;;;;4995419;28;20439;-65
2021/03/30 02:35:11;;;;;;;6.23;2.47;;;7.50;94.60;;;;;;5012585;28;20761;-64
2021/03/30 02:37:38;;;;;;;3.60;2.40;;;7.50;94.80;;;;;;5012847;28;20403;-67
2021/03/30 02:40:06;;;;;;;2.77;2.30;;;7.50;95.00;;;;;;4994867;28;20430;-65
2021/03/30 02:42:35;;;;;;;5.47;2.30;;;7.40;94.90;;;;;;5012796;28;20503;-65
2021/03/30 02:45:01;;;;;;;3.97;2.20;;;7.50;95.60;;;;;;5012671;28;20411;-67
2021/03/30 02:47:27;;;;;;;4.23;2.33;;;7.50;95.20;;;;;;5012743;28;20432;-69
2021/03/30 02:49:54;;;;;;;5.77;2.53;;;7.40;95.20;;;;;;5012759;28;20518;-65
2021/03/30 02:52:22;;;;;;;3.63;2.73;;;7.40;95.50;;;;;;5012376;28;20216;-67
2021/03/30 02:54:48;;;;;;;5.17;2.70;;;7.40;95.50;;;;;;4997117;28;20490;-64
2021/03/30 02:57:15;;;;;;;2.90;2.37;;;7.30;95.60;;;;;;4992854;28;20748;-67
2021/03/30 02:59:42;;;;;;;4.00;2.60;;;7.30;95.90;;;;;;4993008;28;20416;-65
2021/03/30 03:02:08;;;;;;;6.77;2.17;;;7.30;95.70;;;;;;4992874;28;20456;-65
2021/03/30 03:04:35;;;;;;;3.37;2.23;;;7.40;96.50;;;;;;5010677;28;20408;-64
2021/03/30 03:07:02;;;;;;;4.90;2.23;;;7.50;96.80;;;;;;5004458;28;20486;-65
2021/03/30 03:09:29;;;;;;;3.90;2.43;;;7.50;95.30;;;;;;4992500;28;20812;-65
2021/03/30 03:11:56;;;;;;;4.00;2.57;;;7.50;95.90;;;;;;4992599;28;20722;-66
2021/03/30 03:14:23;;;;;;;4.90;2.40;;;7.50;94.80;;;;;;4992675;28;20920;-65
2021/03/30 03:16:50;;;;;;;5.63;2.83;;;7.40;95.40;;;;;;4992607;28;20463;-66
2021/03/30 03:19:16;;;;;;;3.07;2.50;;;7.30;95.60;;;;;;4992574;28;20423;-67
2021/03/30 03:21:44;;;;;;;5.97;2.83;;;7.20;95.90;;;;;;4974706;28;20460;-69
2021/03/30 03:24:11;;;;;;;4.90;2.80;;;7.20;96.30;;;;;;4992354;28;20412;-66
2021/03/30 03:26:38;;;;;;;4.43;2.63;;;7.10;96.70;;;;;;4992533;28;20440;-68
2021/03/30 03:29:11;;;;;;;4.00;2.60;;;7.10;97.10;;;;;;5010438;28;20428;-67
2021/03/30 03:31:37;;;;;;;4.13;2.63;;;7.00;97.30;;;;;;5011742;28;20422;-67
2021/03/30 03:34:02;;;;;;;4.90;2.90;;;6.90;97.50;;;;;;5011756;28;20510;-65
2021/03/30 03:36:40;;;;;;;3.10;2.20;;;6.80;97.70;;;;;;5011472;28;20231;-65
2021/03/30 03:39:07;;;;;;;3.77;2.70;;;6.80;98.20;;;;;;5011751;28;20182;-66
2021/03/30 03:41:33;;;;;;;4.70;2.27;;;6.80;98.30;;;;;;5011711;28;20944;-66
2021/03/30 03:43:59;;;;;;;5.03;2.60;;;6.90;99.10;;;;;;5011514;28;20433;-67
2021/03/30 03:46:24;;;;;;;7.00;2.60;;;7.10;98.10;;;;;;5011649;28;20769;-66
2021/03/30 03:48:50;;;;;;;3.33;2.50;;;7.20;98.40;;;;;;5011466;28;20181;-66
2021/03/30 03:51:17;;;;;;;7.33;2.47;;;7.30;97.20;;;;;;5011395;28;20196;-66
2021/03/30 03:53:46;;;;;;;5.67;2.77;;;7.30;97.10;;;;;;5012797;28;20270;-68
2021/03/30 03:56:15;;;;;;;5.13;2.83;;;7.20;96.80;;;;;;5011390;28;20408;-68
2021/03/30 03:58:46;;;;;;;5.87;1.97;;;7.20;97.80;;;;;;5011446;28;20423;-66
2021/03/30 04:01:14;;;;;;;5.60;2.20;;;7.30;97.50;;;;;;5011102;28;20411;-67
2021/03/30 04:03:52;;;;;;;3.50;2.33;;;7.30;95.70;;;;;;5011183;28;20474;-65
2021/03/30 04:06:22;;;;;;;4.03;2.17;;;7.20;96.00;;;;;;5011085;28;20469;-66
2021/03/30 04:08:56;;;;;;;6.97;2.23;;;7.10;96.00;;;;;;5011285;28;20454;-65
2021/03/30 04:11:23;;;;;;;5.77;2.50;;;7.00;97.60;;;;;;5011127;28;20884;-66
2021/03/30 04:13:51;;;;;;;5.13;3.07;;;7.00;97.50;;;;;;5011087;28;20431;-66
2021/03/30 04:16:17;;;;;;;4.50;2.70;;;6.80;97.40;;;;;;5011000;28;20567;-67
2021/03/30 04:18:44;;;;;;;5.77;2.53;;;6.80;98.70;;;;;;5010952;28;20423;-65
2021/03/30 04:21:23;;;;;;;3.97;2.70;;;6.90;98.50;;;;;;5011254;28;20429;-67
2021/03/30 04:23:51;;;;;;;6.27;2.70;;;6.70;98.30;;;;;;5011064;28;20427;-67
2021/03/30 04:26:16;;;;;;;6.27;3.00;;;6.60;98.60;;;;;;5011147;28;20451;-68
2021/03/30 04:28:42;;;;;;;5.37;3.03;;;6.50;99.10;;;;;;5010701;28;20467;-68
2021/03/30 04:31:08;;;;;;;5.00;2.30;;;6.40;99.80;;;;;;5011553;28;20183;-66
2021/03/30 04:33:33;;;;;;;4.07;2.20;;;6.40;99.90;;;;;;5011098;28;20291;-67
2021/03/30 04:35:59;;;;;;;7.93;2.87;;;6.30;99.90;;;;;;5011037;28;20184;-66
2021/03/30 04:38:24;;;;;;;6.50;2.57;;;6.30;99.90;;;;;;5011123;28;20182;-67
2021/03/30 04:40:53;;;;;;;6.00;2.93;;;6.20;99.90;;;;;;5010815;28;20240;-66
2021/03/30 04:43:20;;;;;;;4.13;2.60;;;6.20;99.90;;;;;;5010976;28;20368;-67
2021/03/30 04:45:46;;;;;;;4.07;2.57;;;6.20;99.90;;;;;;5010724;28;20501;-64
2021/03/30 04:48:11;;;;;;;4.73;2.60;;;6.10;99.90;;;;;;5013649;28;20459;-67
2021/03/30 04:50:37;;;;;;;5.40;2.97;;;6.20;99.90;;;;;;5014913;28;20187;-65
2021/03/30 04:53:03;;;;;;;6.13;3.00;;;6.20;99.90;;;;;;5016003;28;20180;-66
2021/03/30 04:55:28;;;;;;;6.57;3.10;;;6.20;99.90;;;;;;5014885;28;20533;-67
2021/03/30 04:57:54;;;;;;;5.60;2.87;;;6.20;99.90;;;;;;5014579;28;20177;-66
2021/03/30 05:00:21;;;;;;;4.60;2.37;;;6.20;99.90;;;;;;5014630;28;20693;-68
2021/03/30 05:02:46;;;;;;;7.47;2.70;;;6.10;99.90;;;;;;5014579;28;20222;-66
2021/03/30 05:05:12;;;;;;;5.50;3.03;;;6.10;99.90;;;;;;5014847;28;20767;-67
2021/03/30 05:07:38;;;;;;;3.80;2.40;;;6.10;99.90;;;;;;5014560;28;20187;-65
2021/03/30 05:10:06;;;;;;;5.33;2.83;;;6.10;99.90;;;;;;5014598;28;20419;-66
2021/03/30 05:12:31;;;;;;;4.67;2.70;;;6.00;99.90;;;;;;5014321;28;20599;-67
2021/03/30 05:14:57;;;;;;;4.97;3.13;;;6.00;99.90;;;;;;5014535;28;20462;-68
2021/03/30 05:17:22;;;;;;;4.97;2.97;;;5.90;99.90;;;;;;5014231;28;20573;-66
2021/03/30 05:19:48;;;;;;;6.33;2.80;;;5.90;99.90;;;;;;5014345;28;20216;-67
2021/03/30 05:22:14;;;;;;;8.63;3.07;;;5.90;99.90;;;;;;5014241;28;20208;-65
2021/03/30 05:24:39;;;;;;;4.97;2.77;;;5.90;99.90;;;;;;5014231;28;20176;-65
2021/03/30 05:27:06;;;;;;;6.13;3.20;;;5.90;99.90;;;;;;5014255;28;20181;-66
2021/03/30 05:29:42;;;;;;;6.50;2.43;;;5.90;99.90;;;;;;5014057;28;20611;-65
2021/03/30 05:32:11;;;;;;;5.30;3.20;;;6.00;99.90;;;;;;5013639;28;20457;-67
2021/03/30 05:34:37;;;;;;;4.67;2.90;;;6.00;99.90;;;;;;5014261;28;20408;-67
2021/03/30 05:37:03;;;;;;;4.47;2.70;;;6.10;99.90;;;;;;5013873;28;20426;-64
2021/03/30 05:39:30;;;;;;;5.40;3.00;;;6.10;99.90;;;;;;5014044;28;20291;-66
2021/03/30 05:41:56;;;;;;;8.23;3.33;;;6.10;99.90;;;;;;5013695;28;20451;-67
2021/03/30 05:44:22;;;;;;;7.30;2.97;;;6.10;99.90;;;;;;5014047;28;20415;-66
2021/03/30 05:46:59;;;;;;;4.67;3.03;;;6.20;99.90;;;;;;5013883;28;20762;-66
2021/03/30 05:49:25;;;;;;;10.33;3.50;;;6.20;99.90;;;;;;5013823;28;20458;-66
2021/03/30 05:51:50;;;;;;;6.13;3.50;;;6.30;99.90;;;;;;5013504;28;20454;-68
2021/03/30 05:54:19;;;;;;;9.10;3.50;;;6.30;99.90;;;;;;5020193;28;20670;-67
2021/03/30 05:56:45;;;;;;;5.77;3.73;;;6.30;99.90;;;;;;5033645;28;20171;-67
2021/03/30 05:59:11;;;;;;;6.40;3.23;;;6.30;99.90;;;;;;5033281;28;20932;-64
2021/03/30 06:01:39;;;;;;;9.00;3.57;;;6.30;99.90;;;;;;5033293;28;20484;-69
2021/03/30 06:04:06;;;;;;;4.73;3.23;;;6.30;99.90;;;;;;5033093;28;20970;-66
2021/03/30 06:06:31;;;;;;;5.97;3.20;;;6.50;99.90;;;;;;5032925;28;20927;-66
2021/03/30 06:08:57;;;;;;;8.53;4.47;;;6.50;99.90;;;;;;5032912;28;20411;-68
2021/03/30 06:11:23;;;;;;;6.67;3.10;;;6.50;99.90;;;;;;5032770;28;20691;-67
2021/03/30 06:13:52;;;;;;;7.87;3.17;;;6.50;99.90;;;;;;5013342;28;20576;-66
2021/03/30 06:16:32;;;;;;;8.07;3.40;;;6.60;99.90;;;;;;5016058;28;20171;-66
2021/03/30 06:19:15;;;;;;;6.40;3.27;;;6.70;99.90;;;;;;5033089;28;20472;-66
2021/03/30 06:21:47;;;;;;;6.13;3.73;;;6.90;99.90;;;;;;5023174;28;20420;-67
2021/03/30 06:24:22;;;;;;;6.03;3.30;;;7.10;99.90;;;;;;5017306;28;20494;-68
2021/03/30 06:26:49;;;;;;;6.13;3.33;;;7.20;99.90;;;;;;5032557;28;20410;-67
2021/03/30 06:29:35;;;;;;;7.30;3.57;;;7.20;99.90;;;;;;5032961;28;20415;-67
2021/03/30 06:32:10;;;;;;;5.90;3.40;;;7.30;99.90;;;;;;5032501;28;20426;-67
2021/03/30 06:34:37;;;;;;;6.07;3.47;;;7.30;99.90;;;;;;5032471;28;20775;-67
2021/03/30 06:37:25;;;;;;;5.83;3.13;;;7.40;99.90;;;;;;5032184;28;20426;-67
2021/03/30 06:39:51;;;;;;;4.60;3.40;;;7.50;99.90;;;;;;5032175;28;20422;-66
2021/03/30 06:42:29;;;;;;;9.90;3.53;;;7.70;99.80;;;;;;5032363;28;20465;-67
2021/03/30 06:44:54;;;;;;;5.23;2.80;;;7.80;99.50;;;;;;5032219;28;20172;-66
2021/03/30 06:47:23;;;;;;;4.97;2.67;;;7.90;99.30;;;;;;5032238;28;20418;-67
2021/03/30 06:50:02;;;;;;;8.87;3.07;;;8.00;98.60;;;;;;5012544;28;20180;-66
2021/03/30 06:52:29;;;;;;;6.23;3.07;;;8.20;98.10;;;;;;5012386;28;20437;-64
2021/03/30 06:55:00;;;;;;;9.77;3.27;;;8.30;97.20;;;;;;5012821;28;20467;-67
2021/03/30 06:57:42;;;;;;;6.47;3.47;;;8.40;96.80;;;;;;5011255;28;20506;-68
2021/03/30 07:00:11;;;;;;;5.67;3.63;;;8.50;96.70;;;;;;5011977;28;20497;-64
2021/03/30 07:02:52;;;;;;;10.00;3.87;;;8.60;96.90;;;;;;5011853;28;20466;-67
2021/03/30 07:05:34;;;;;;;6.37;3.37;;;8.80;97.00;;;;;;5011934;28;20416;-67
2021/03/30 07:08:13;;;;;;;6.93;3.53;;;8.90;96.40;;;;;;4994261;28;20419;-66
2021/03/30 07:10:40;;;;;;;16.90;3.97;;;9.00;96.10;;;;;;5011706;28;20415;-67
2021/03/30 07:13:07;;;;;;;8.67;3.87;;;9.20;95.00;;;;;;5011870;28;20427;-65
2021/03/30 07:15:32;;;;;;;9.83;3.77;;;9.40;94.80;;;;;;5011425;28;20561;-67
2021/03/30 07:18:25;;;;;;;12.97;4.27;;;9.50;94.00;;;;;;5012138;28;20928;-65
2021/03/30 07:20:59;;;;;;;11.77;4.50;;;9.70;93.40;;;;;;5011670;28;20185;-68
2021/03/30 07:23:30;;;;;;;9.73;4.20;;;9.90;93.70;;;;;;5011555;28;20471;-68
2021/03/30 07:26:18;;;;;;;10.30;5.03;;;10.10;92.50;;;;;;5011818;28;20423;-67
2021/03/30 07:28:44;;;;;;;10.63;4.80;;;10.30;91.80;;;;;;5011756;28;20203;-66
2021/03/30 07:31:24;;;;;;;9.10;5.33;;;10.50;91.50;;;;;;5011754;28;20498;-67
2021/03/30 07:34:00;;;;;;;9.43;4.83;;;10.60;90.40;;;;;;5011827;28;20650;-66
2021/03/30 07:36:28;;;;;;;7.17;4.77;;;10.80;87.10;;;;;;5011161;28;20180;-66
2021/03/30 07:38:59;;;;;;;11.87;5.37;;;10.90;86.40;;;;;;5011541;28;20675;-67
2021/03/30 07:41:25;;;;;;;12.03;5.43;;;11.00;87.00;;;;;;5011766;28;20271;-65
2021/03/30 07:43:51;;;;;;;11.23;4.90;;;11.10;86.90;;;;;;5011596;28;20283;-67
2021/03/30 07:46:18;;;;;;;9.67;4.87;;;11.30;85.40;;;;;;5011972;28;20238;-66
2021/03/30 07:48:45;;;;;;;9.63;6.00;;;11.50;83.50;;;;;;5011739;28;20185;-67
2021/03/30 07:51:20;;;;;;;8.77;5.60;;;11.60;82.80;;;;;;5010402;28;20176;-65
2021/03/30 07:54:13;;;;;;;11.23;6.53;;;11.60;78.50;;;;;;5015208;28;20249;-66
2021/03/30 07:56:39;;;;;;;8.23;5.80;;;11.80;77.90;;;;;;5020734;28;20183;-68
2021/03/30 07:59:06;;;;;;;7.43;5.20;;;11.80;75.70;;;;;;5014073;28;20262;-68
2021/03/30 08:01:33;;;;;;;7.33;5.07;;;11.90;75.40;;;;;;5011448;28;20211;-70
2021/03/30 08:04:01;;;;;;;7.53;4.97;;;12.00;74.80;;;;;;5023384;28;20176;-68
2021/03/30 08:06:32;;;;;;;9.53;4.80;;;12.10;74.40;;;;;;5020661;28;20187;-65
2021/03/30 08:09:07;;;;;;;12.57;4.93;;;12.20;73.70;;;;;;5026812;28;20179;-64
2021/03/30 08:11:43;;;;;;;7.77;4.50;;;12.30;72.70;;;;;;5030847;28;20629;-68
2021/03/30 08:14:18;;;;;;;9.10;4.67;;;12.40;71.90;;;;;;5017806;28;20543;-69
2021/03/30 08:16:46;;;;;;;7.70;4.77;;;12.50;72.70;;;;;;5024606;28;20328;-68
2021/03/30 08:19:13;;;;;;;7.67;4.67;;;12.60;70.80;;;;;;5016367;28;20211;-65
2021/03/30 08:21:57;;;;;;;7.47;4.37;;;12.60;71.60;;;;;;5012233;28;20180;-65
2021/03/30 08:24:25;;;;;;;8.83;5.07;;;12.60;72.00;;;;;;5030699;28;20179;-66
2021/03/30 08:26:50;;;;;;;6.73;4.40;;;12.80;70.20;;;;;;5030913;28;20178;-66
2021/03/30 08:29:31;;;;;;;7.13;4.47;;;12.90;70.20;;;;;;5017343;28;20181;-67
2021/03/30 08:31:59;;;;;;;8.63;4.50;;;13.00;69.00;;;;;;5029904;28;20678;-67
2021/03/30 08:34:36;;;;;;;8.07;4.53;;;13.10;69.00;;;;;;5015004;28;20188;-68
2021/03/30 08:37:09;;;;;;;7.17;4.27;;;13.20;68.80;;;;;;5011191;28;20183;-67
2021/03/30 08:39:36;;;;;;;5.57;3.93;;;13.30;68.50;;;;;;5011573;28;20180;-70
2021/03/30 08:42:04;;;;;;;8.10;4.30;;;13.40;67.00;;;;;;5027944;28;20207;-68
2021/03/30 08:44:49;;;;;;;6.57;4.17;;;13.50;66.40;;;;;;5030581;28;21624;-70
2021/03/30 08:47:25;;;;;;;6.90;4.57;;;13.60;64.70;;;;;;5027477;28;20221;-70
2021/03/30 08:49:51;;;;;;;5.97;4.10;;;13.60;59.00;;;;;;5012977;28;20179;-68
2021/03/30 08:52:18;;;;;;;9.63;4.40;;;13.60;59.50;;;;;;5011280;28;20188;-69
2021/03/30 08:54:54;;;;;;;8.40;4.73;;;13.70;60.60;;;;;;5029709;28;20308;-70
2021/03/30 08:57:27;;;;;;;9.30;5.07;;;13.80;60.20;;;;;;5016890;28;20188;-66
2021/03/30 08:59:53;;;;;;;8.47;5.40;;;13.90;60.30;;;;;;5010787;28;20259;-65
2021/03/30 09:02:24;;;;;;;9.13;5.40;;;14.10;59.50;;;;;;5022728;28;20346;-70
2021/03/30 09:04:51;;;;;;;8.43;5.13;;;14.20;59.10;;;;;;5030025;28;20168;-68
2021/03/30 09:07:17;;;;;;;9.13;5.53;;;14.40;58.40;;;;;;5029840;28;20176;-67
2021/03/30 09:09:43;;;;;;;10.40;5.43;;;14.40;57.60;;;;;;5029653;28;20333;-68
2021/03/30 09:12:17;;;;;;;12.13;5.17;;;14.60;57.50;;;;;;5029479;28;20262;-67
2021/03/30 09:14:44;;;;;;;8.90;5.27;;;14.70;57.50;;;;;;5029760;28;20178;-66
2021/03/30 09:17:11;;;;;;;9.27;5.67;;;14.80;57.60;;;;;;5029740;28;20183;-66
2021/03/30 09:19:46;;;;;;;15.53;6.27;;;14.90;57.00;;;;;;5018605;28;20215;-67
2021/03/30 09:22:26;;;;;;;13.40;6.23;;;15.00;57.20;;;;;;5009666;28;20282;-68
2021/03/30 09:25:06;;;;;;;9.27;6.03;;;15.10;57.00;;;;;;5010623;28;20168;-66
2021/03/30 09:27:34;;;;;;;9.70;6.07;;;15.20;56.20;;;;;;5010475;28;20184;-67
2021/03/30 09:30:03;;;;;;;9.10;5.40;;;15.40;56.40;;;;;;5026377;28;20179;-66
2021/03/30 09:32:31;;;;;;;9.67;5.63;;;15.50;54.30;;;;;;5029084;28;20499;-66
2021/03/30 09:35:24;;;;;;;10.97;6.33;;;15.60;54.50;;;;;;5033867;28;20202;-66
2021/03/30 09:38:02;;;;;;;7.47;5.50;;;15.70;53.00;;;;;;5030164;28;20539;-66
2021/03/30 09:40:35;;;;;;;12.70;6.40;;;15.80;54.20;;;;;;5032000;28;20262;-69
2021/03/30 09:43:04;;;;;;;16.27;7.00;;;15.90;53.30;;;;;;5020633;28;20760;-67
2021/03/30 09:45:32;;;;;;;13.27;6.93;;;16.00;53.20;;;;;;5029131;28;20171;-69
2021/03/30 09:48:00;;;;;;;10.97;7.00;;;16.10;53.20;;;;;;5032767;28;20180;-69
2021/03/30 09:50:27;;;;;;;15.97;7.43;;;16.20;52.40;;;;;;5033112;28;20171;-70
2021/03/30 09:52:59;;;;;;;12.27;6.40;;;16.30;52.70;;;;;;5019590;28;20180;-68
2021/03/30 09:55:39;;;;;;;11.50;7.30;;;16.40;52.30;;;;;;5029413;28;20218;-64
2021/03/30 09:58:12;;;;;;;10.83;6.73;;;16.50;51.60;;;;;;5015402;28;20234;-65
2021/03/30 10:00:40;;;;;;;9.00;6.13;;;16.70;51.40;;;;;;5014958;28;20217;-69
2021/03/30 10:03:08;;;;;;;12.93;6.17;;;16.70;51.30;;;;;;5013599;28;20238;-67
2021/03/30 10:05:34;;;;;;;11.87;6.30;;;16.70;50.20;;;;;;5022790;28;20251;-66
2021/03/30 10:08:00;;;;;;;10.63;6.83;;;16.70;50.50;;;;;;5025799;28;20179;-69
2021/03/30 10:10:43;;;;;;;10.63;6.47;;;16.80;51.10;;;;;;5033258;28;20255;-69
2021/03/30 10:13:26;;;;;;;10.83;7.33;;;16.90;51.40;;;;;;5022383;28;20195;-66
2021/03/30 10:15:52;;;;;;;11.23;6.63;;;17.00;51.50;;;;;;5021463;28;20179;-67
2021/03/30 10:18:20;;;;;;;13.07;7.13;;;17.20;50.20;;;;;;5021809;28;20662;-68
2021/03/30 10:20:47;;;;;;;11.23;6.47;;;17.30;50.50;;;;;;5032696;28;20180;-66
2021/03/30 10:23:26;;;;;;;9.87;6.70;;;17.50;49.30;;;;;;5032570;28;20203;-67
2021/03/30 10:25:52;;;;;;;14.10;6.47;;;17.60;49.20;;;;;;5033178;28;20225;-65
2021/03/30 10:28:32;;;;;;;9.63;6.40;;;17.80;47.70;;;;;;5032383;28;20277;-66
2021/03/30 10:31:23;;;;;;;11.13;6.73;;;17.90;47.80;;;;;;5025426;28;20215;-67
2021/03/30 10:33:50;;;;;;;11.73;6.47;;;18.00;46.40;;;;;;5013883;28;20188;-66
2021/03/30 10:36:17;;;;;;;10.57;7.10;;;16.80;46.10;;;;;;5012878;28;20172;-67
2021/03/30 10:39:08;;;;;;;10.13;6.17;;;18.20;47.20;;;;;;5015625;28;20530;-66
2021/03/30 10:41:39;;;;;;;11.57;6.23;;;18.30;46.60;;;;;;5012654;28;20215;-67
2021/03/30 10:44:06;;;;;;;11.30;5.87;;;18.50;45.50;;;;;;5012143;28;20173;-68
2021/03/30 10:46:43;;;;;;;11.03;6.57;;;18.60;45.30;;;;;;5018015;28;20175;-66
2021/03/30 10:49:10;;;;;;;10.47;6.40;;;18.70;45.40;;;;;;5032085;28;20182;-68
2021/03/30 10:51:39;;;;;;;11.67;6.03;;;18.70;45.10;;;;;;5031960;28;20174;-68
2021/03/30 10:54:06;;;;;;;9.00;5.30;;;18.90;44.70;;;;;;5029030;28;20310;-66
2021/03/30 10:56:33;;;;;;;10.53;5.80;;;19.00;45.80;;;;;;5012294;28;20677;-68
2021/03/30 10:58:59;;;;;;;9.97;5.23;;;19.10;44.20;;;;;;5012865;28;20192;-66
2021/03/30 11:01:25;;;;;;;9.67;4.83;;;19.20;45.20;;;;;;5012441;28;20746;-65
2021/03/30 11:03:51;;;;;;;8.53;5.70;;;19.30;42.60;;;;;;5012176;28;20208;-65
2021/03/30 11:06:17;;;;;;;9.20;5.07;;;19.40;43.20;;;;;;5011977;28;20618;-66
2021/03/30 11:08:43;;;;;;;8.10;5.37;;;19.50;44.70;;;;;;5011968;28;20200;-66
2021/03/30 11:11:08;;;;;;;9.10;5.03;;;19.60;42.00;;;;;;5012276;28;20215;-66
2021/03/30 11:13:34;;;;;;;12.97;5.43;;;19.70;43.10;;;;;;5011893;28;20190;-65
2021/03/30 11:16:00;;;;;;;7.30;5.60;;;19.70;43.20;;;;;;5012079;28;20180;-66
2021/03/30 11:18:25;;;;;;;6.00;4.80;;;20.00;40.90;;;;;;5011937;28;20192;-67
2021/03/30 11:20:51;;;;;;;11.37;5.17;;;20.10;40.80;;;;;;5011640;28;20572;-67
2021/03/30 11:23:17;;;;;;;8.40;4.87;;;20.20;42.70;;;;;;5012284;28;20649;-68
2021/03/30 11:25:42;;;;;;;292.83;38.63;;;20.50;43.50;;;;;;5011801;28;20267;-69
2021/03/30 11:28:11;;;;;;;11.00;5.50;;;20.60;42.80;;;;;;5011707;28;20268;-68
2021/03/30 11:30:43;;;;;;;8.70;5.07;;;20.40;41.00;;;;;;5011905;28;20219;-67
2021/03/30 11:33:13;;;;;;;7.37;5.40;;;20.80;41.50;;;;;;5011651;28;20215;-69
2021/03/30 11:35:52;;;;;;;14.73;6.10;;;21.00;40.30;;;;;;5011698;28;20242;-67
2021/03/30 11:38:18;;;;;;;105.77;16.57;;;21.20;41.00;;;;;;5011709;28;20555;-65
2021/03/30 11:40:44;;;;;;;9.17;5.47;;;21.20;40.30;;;;;;5011562;28;20204;-63
2021/03/30 11:43:10;;;;;;;10.57;5.33;;;21.20;39.70;;;;;;5011099;28;20275;-68
2021/03/30 11:45:43;;;;;;;14.40;5.40;;;21.50;40.10;;;;;;5011485;28;20196;-68
2021/03/30 11:48:09;;;;;;;11.17;5.00;;;21.50;38.60;;;;;;5011434;28;20206;-66
2021/03/30 11:50:35;;;;;;;9.93;4.93;;;21.40;39.40;;;;;;5011167;28;20200;-68
2021/03/30 11:53:01;;;;;;;12.03;5.73;;;21.30;37.70;;;;;;5011235;28;20638;-67
2021/03/30 11:55:34;;;;;;;22.30;7.00;;;21.60;38.40;;;;;;5012621;28;20298;-68
2021/03/30 11:57:59;;;;;;;10.70;5.60;;;21.60;38.90;;;;;;5011098;28;20192;-67
2021/03/30 12:00:26;;;;;;;7.80;4.97;;;21.70;37.80;;;;;;4993532;28;20199;-66
2021/03/30 12:02:51;;;;;;;6.57;4.70;;;22.00;36.50;;;;;;5011295;28;20219;-65
2021/03/30 12:05:21;;;;;;;10.97;5.23;;;22.20;37.70;;;;;;5011377;28;20173;-66
2021/03/30 12:07:47;;;;;;;8.50;5.50;;;22.40;38.00;;;;;;5011217;28;20682;-66
2021/03/30 12:10:14;;;;;;;11.47;4.77;;;22.60;37.50;;;;;;5011110;28;20210;-64
2021/03/30 12:12:40;;;;;;;8.53;5.13;;;22.70;36.10;;;;;;5011443;28;20706;-65
2021/03/30 12:15:08;;;;;;;9.67;5.17;;;23.10;36.90;;;;;;5011065;28;20180;-67
2021/03/30 12:17:34;;;;;;;12.23;4.93;;;23.30;35.30;;;;;;5011209;28;20168;-65
2021/03/30 12:20:00;;;;;;;13.67;5.43;;;23.40;35.30;;;;;;5010892;28;20495;-65
2021/03/30 12:22:27;;;;;;;10.40;5.40;;;23.60;35.30;;;;;;5010882;28;20283;-68
2021/03/30 12:24:53;;;;;;;8.90;5.00;;;23.70;33.30;;;;;;5010496;28;20192;-65
2021/03/30 12:27:18;;;;;;;17.43;5.33;;;23.60;32.50;;;;;;5010699;28;20639;-65
2021/03/30 12:29:44;;;;;;;9.73;5.00;;;23.80;34.40;;;;;;5011071;28;20172;-66
2021/03/30 12:32:12;;;;;;;10.20;4.67;;;24.10;33.00;;;;;;5010921;28;20242;-68
2021/03/30 12:34:39;;;;;;;10.57;4.77;;;24.00;30.50;;;;;;5010947;28;20176;-65
2021/03/30 12:37:05;;;;;;;8.93;4.60;;;24.30;33.00;;;;;;5011301;28;20266;-66
2021/03/30 12:39:31;;;;;;;7.83;4.27;;;24.50;31.00;;;;;;5010984;28;20184;-66
2021/03/30 12:41:57;;;;;;;10.33;4.47;;;24.80;31.90;;;;;;5010697;28;20180;-64
2021/03/30 12:44:25;;;;;;;9.03;4.67;;;25.20;31.60;;;;;;5010903;28;20259;-65
2021/03/30 12:46:51;;;;;;;8.33;5.47;;;25.90;29.60;;;;;;5010802;28;20172;-66
2021/03/30 12:49:16;;;;;;;9.53;4.50;;;26.10;28.70;;;;;;5010831;28;20177;-64
2021/03/30 12:51:42;;;;;;;9.27;4.80;;;26.20;29.00;;;;;;5010343;28;20251;-67
2021/03/30 12:54:14;;;;;;;9.90;4.53;;;;;;;;;;5011890;28;20198;-68
2021/03/30 12:56:40;;;;;;;6.20;4.53;;;27.20;26.90;;;;;;5010742;28;20638;-66
2021/03/30 12:59:06;;;;;;;10.23;4.13;;;27.60;26.30;;;;;;5010839;28;20181;-68
2021/03/30 13:01:31;;;;;;;9.73;4.80;;;28.00;26.30;;;;;;5010755;28;20201;-66